Naikai2 — JD2433 — position and weather

sailwx.info

Track history (hours):
 
Tides and Currents Weather Stations Pressure Air Temp Water Temp Dewpoint Dewpoint Depression Visibility Wind Speed Wind Dir Waves Ship Positions

Naikai2

Last reported at 2015-Mar-06 03:29 UTC. Time now 2015-Mar-06 09:09 UTC.
Position N 34°37' E 135°01'.

Length 28 m; draft 2.2 m.

Type: Other ship. MMSI: 431000283.

Date/timePositionNaut miles runAvg speedWind from/ knotsBaromVisibWave heightAir tempDewpointWater temp
2015-Mar-06 03:29N 34°37' E 135°01'7 7.6
2015-Mar-06 02:33N 34°34' E 135°09'8 8.3
2015-Mar-06 01:33N 34°27' E 135°04'1312.7
2015-Mar-06 00:34N 34°15' E 134°59'7 5.7
2015-Mar-05 23:18N 34°22' E 134°59'1013.7
2015-Mar-05 22:33N 34°32' E 135°03'9 9.2
2015-Mar-05 21:33N 34°39' E 135°10'0 0.0
2015-Mar-05 08:11N 34°39' E 135°10'1 0.3
2015-Mar-05 03:33N 34°40' E 135°11'1111.3
2015-Mar-05 02:32N 34°34' E 135°23'1 0.9
2015-Mar-05 01:33N 34°33' E 135°23'1110.6
2015-Mar-05 00:32N 34°28' E 135°11'1613.5
2015-Mar-04 23:20N 34°15' E 134°60'3 3.6
2015-Mar-04 22:33N 34°12' E 134°60'1312.6
2015-Mar-04 21:31N 34°25' E 135°02'1414.0
2015-Mar-04 20:33N 34°37' E 135°09'2 1.8
2015-Mar-04 19:33N 34°39' E 135°10'1 0.1
2015-Mar-03 23:34N 34°40' E 135°11'1 0.5
2015-Mar-03 22:34N 34°40' E 135°11'1 1.3
2015-Mar-03 21:34N 34°39' E 135°10'1 0.1
2015-Mar-03 11:06N 34°38' E 135°09'713.8
2015-Mar-03 10:33N 34°31' E 135°07'1615.2
2015-Mar-03 09:31N 34°16' E 134°59'1312.1
2015-Mar-03 08:27N 34°29' E 135°03'8 8.6
2015-Mar-03 07:33N 34°37' E 135°01'16 0.5
2015-Mar-01 21:25N 34°34' E 134°42'1112.5
2015-Mar-01 20:31N 34°37' E 134°56'9 9.5
2015-Mar-01 19:34N 34°35' E 135°06'6 6.0
2015-Mar-01 18:33N 34°29' E 135°05'1412.9
2015-Mar-01 17:30N 34°16' E 134°59'1 1.2
2015-Mar-01 16:26N 34°17' E 134°58'3 0.5
2015-Mar-01 10:22N 34°20' E 134°56'4 4.2
2015-Mar-01 09:22N 34°22' E 135°01'1215.2
2015-Mar-01 08:33N 34°29' E 135°13'9 9.5
2015-Mar-01 07:33N 34°33' E 135°23'1 1.1
2015-Mar-01 06:33N 34°34' E 135°23'1111.5
2015-Mar-01 05:33N 34°39' E 135°10'0 0.0
2015-Feb-28 03:15N 34°39' E 135°10'1115.4
2015-Feb-28 02:33N 34°34' E 135°22'1 1.0
2015-Feb-28 01:30N 34°33' E 135°22'9 9.5
2015-Feb-28 00:33N 34°28' E 135°13'1713.7
2015-Feb-27 23:21N 34°16' E 134°59'2 2.3
2015-Feb-27 22:27N 34°14' E 134°58'9 1.0
2015-Feb-27 13:06N 34°23' E 134°56'915.4
2015-Feb-27 12:32N 34°31' E 135°02'6 6.2
2015-Feb-27 11:32N 34°36' E 134°58'1010.6
2015-Feb-27 10:33N 34°39' E 135°10'0 0.2
2015-Feb-27 09:33N 34°39' E 135°10'0 0.0
2015-Feb-27 03:30N 34°39' E 135°10'1 1.3
2015-Feb-27 02:33N 34°39' E 135°11'8 1.0
2015-Feb-26 18:32N 34°37' E 135°02'3 2.6
2015-Feb-26 17:33N 34°36' E 135°05'5 5.3
2015-Feb-26 16:33N 34°39' E 135°10'1 0.1
2015-Feb-26 09:33N 34°38' E 135°09'9 6.8
2015-Feb-26 08:17N 34°36' E 134°59'1 1.9
2015-Feb-26 07:33N 34°36' E 135°01'0 0.0
2015-Feb-26 06:32N 34°36' E 135°01'0 0.0
2015-Feb-26 05:33N 34°36' E 135°01'3 2.6
2015-Feb-26 04:34N 34°35' E 135°04'2 1.0
2015-Feb-26 02:31N 34°38' E 135°03'0 0.0
2015-Feb-26 01:33N 34°38' E 135°03'0 0.0
2015-Feb-26 00:33N 34°38' E 135°03'0 0.0
2015-Feb-25 23:33N 34°38' E 135°03'0 0.0
2015-Feb-25 22:33N 34°38' E 135°03'0 0.0
2015-Feb-25 21:33N 34°38' E 135°03'7 6.4
2015-Feb-25 20:32N 34°36' E 134°55'8 8.4
2015-Feb-25 19:33N 34°35' E 135°05'5 5.3
2015-Feb-25 18:33N 34°39' E 135°10'0 0.0
2015-Feb-25 08:28N 34°39' E 135°10'8 8.4
2015-Feb-25 07:31N 34°37' E 135°01'5 5.0
2015-Feb-25 06:33N 34°37' E 135°07'3 3.3
2015-Feb-25 05:33N 34°39' E 135°10'0 0.0
2015-Feb-25 04:33N 34°39' E 135°10'0 0.0
2015-Feb-25 03:33N 34°39' E 135°10'1 0.1
2015-Feb-24 06:33N 34°38' E 135°11'1313.5
2015-Feb-24 05:33N 34°33' E 135°26'4 4.0
2015-Feb-24 04:30N 34°33' E 135°21'5 5.0
2015-Feb-24 03:33N 34°37' E 135°17'  
Track history (hours):
 
Tides and Currents Weather Stations Pressure Air Temp Water Temp Dewpoint Dewpoint Depression Visibility Wind Speed Wind Dir Waves Ship Positions

Naikai2

Last reported at 2015-Mar-06 03:29 UTC. Time now 2015-Mar-06 09:09 UTC.
Position N 34°37' E 135°01'.

Length 28 m; draft 2.2 m.

Type: Other ship. MMSI: 431000283.

Date/timePositionNaut miles runAvg speedWind from/ knotsBaromVisibWave heightAir tempDewpointWater temp
2015-Mar-06 03:29N 34°37' E 135°01'7 7.6
2015-Mar-06 02:33N 34°34' E 135°09'8 8.3
2015-Mar-06 01:33N 34°27' E 135°04'1312.7
2015-Mar-06 00:34N 34°15' E 134°59'7 5.7
2015-Mar-05 23:18N 34°22' E 134°59'1013.7
2015-Mar-05 22:33N 34°32' E 135°03'9 9.2
2015-Mar-05 21:33N 34°39' E 135°10'0 0.0
2015-Mar-05 08:11N 34°39' E 135°10'1 0.3
2015-Mar-05 03:33N 34°40' E 135°11'1111.3
2015-Mar-05 02:32N 34°34' E 135°23'1 0.9
2015-Mar-05 01:33N 34°33' E 135°23'1110.6
2015-Mar-05 00:32N 34°28' E 135°11'1613.5
2015-Mar-04 23:20N 34°15' E 134°60'3 3.6
2015-Mar-04 22:33N 34°12' E 134°60'1312.6
2015-Mar-04 21:31N 34°25' E 135°02'1414.0
2015-Mar-04 20:33N 34°37' E 135°09'2 1.8
2015-Mar-04 19:33N 34°39' E 135°10'1 0.1
2015-Mar-03 23:34N 34°40' E 135°11'1 0.5
2015-Mar-03 22:34N 34°40' E 135°11'1 1.3
2015-Mar-03 21:34N 34°39' E 135°10'1 0.1
2015-Mar-03 11:06N 34°38' E 135°09'713.8
2015-Mar-03 10:33N 34°31' E 135°07'1615.2
2015-Mar-03 09:31N 34°16' E 134°59'1312.1
2015-Mar-03 08:27N 34°29' E 135°03'8 8.6
2015-Mar-03 07:33N 34°37' E 135°01'16 0.5
2015-Mar-01 21:25N 34°34' E 134°42'1112.5
2015-Mar-01 20:31N 34°37' E 134°56'9 9.5
2015-Mar-01 19:34N 34°35' E 135°06'6 6.0
2015-Mar-01 18:33N 34°29' E 135°05'1412.9
2015-Mar-01 17:30N 34°16' E 134°59'1 1.2
2015-Mar-01 16:26N 34°17' E 134°58'3 0.5
2015-Mar-01 10:22N 34°20' E 134°56'4 4.2
2015-Mar-01 09:22N 34°22' E 135°01'1215.2
2015-Mar-01 08:33N 34°29' E 135°13'9 9.5
2015-Mar-01 07:33N 34°33' E 135°23'1 1.1
2015-Mar-01 06:33N 34°34' E 135°23'1111.5
2015-Mar-01 05:33N 34°39' E 135°10'0 0.0
2015-Feb-28 03:15N 34°39' E 135°10'1115.4
2015-Feb-28 02:33N 34°34' E 135°22'1 1.0
2015-Feb-28 01:30N 34°33' E 135°22'9 9.5
2015-Feb-28 00:33N 34°28' E 135°13'1713.7
2015-Feb-27 23:21N 34°16' E 134°59'2 2.3
2015-Feb-27 22:27N 34°14' E 134°58'9 1.0
2015-Feb-27 13:06N 34°23' E 134°56'915.4
2015-Feb-27 12:32N 34°31' E 135°02'6 6.2
2015-Feb-27 11:32N 34°36' E 134°58'1010.6
2015-Feb-27 10:33N 34°39' E 135°10'0 0.2
2015-Feb-27 09:33N 34°39' E 135°10'0 0.0
2015-Feb-27 03:30N 34°39' E 135°10'1 1.3
2015-Feb-27 02:33N 34°39' E 135°11'8 1.0
2015-Feb-26 18:32N 34°37' E 135°02'3 2.6
2015-Feb-26 17:33N 34°36' E 135°05'5 5.3
2015-Feb-26 16:33N 34°39' E 135°10'1 0.1
2015-Feb-26 09:33N 34°38' E 135°09'9 6.8
2015-Feb-26 08:17N 34°36' E 134°59'1 1.9
2015-Feb-26 07:33N 34°36' E 135°01'0 0.0
2015-Feb-26 06:32N 34°36' E 135°01'0 0.0
2015-Feb-26 05:33N 34°36' E 135°01'3 2.6
2015-Feb-26 04:34N 34°35' E 135°04'2 1.0
2015-Feb-26 02:31N 34°38' E 135°03'0 0.0
2015-Feb-26 01:33N 34°38' E 135°03'0 0.0
2015-Feb-26 00:33N 34°38' E 135°03'0 0.0
2015-Feb-25 23:33N 34°38' E 135°03'0 0.0
2015-Feb-25 22:33N 34°38' E 135°03'0 0.0
2015-Feb-25 21:33N 34°38' E 135°03'7 6.4
2015-Feb-25 20:32N 34°36' E 134°55'8 8.4
2015-Feb-25 19:33N 34°35' E 135°05'5 5.3
2015-Feb-25 18:33N 34°39' E 135°10'0 0.0
2015-Feb-25 08:28N 34°39' E 135°10'8 8.4
2015-Feb-25 07:31N 34°37' E 135°01'5 5.0
2015-Feb-25 06:33N 34°37' E 135°07'3 3.3
2015-Feb-25 05:33N 34°39' E 135°10'0 0.0
2015-Feb-25 04:33N 34°39' E 135°10'0 0.0
2015-Feb-25 03:33N 34°39' E 135°10'1 0.1
2015-Feb-24 06:33N 34°38' E 135°11'1313.5
2015-Feb-24 05:33N 34°33' E 135°26'4 4.0
2015-Feb-24 04:30N 34°33' E 135°21'5 5.0
2015-Feb-24 03:33N 34°37' E 135°17'  

Dump ship's entire track history